sensor_id;sensor_type;location;lat;lon;timestamp;P1;durP1;ratioP1;P2;durP2;ratioP2
20314;SDS011;10315;50.958;13.080;2023-12-20T00:01:21;5.53;;;3.30;;
20314;SDS011;10315;50.958;13.080;2023-12-20T00:11:24;3.97;;;3.07;;
20314;SDS011;10315;50.958;13.080;2023-12-20T00:21:26;4.50;;;3.13;;
20314;SDS011;10315;50.958;13.080;2023-12-20T00:31:29;6.37;;;2.97;;
20314;SDS011;10315;50.958;13.080;2023-12-20T00:41:30;4.37;;;2.20;;
20314;SDS011;10315;50.958;13.080;2023-12-20T00:51:33;4.63;;;2.43;;
20314;SDS011;10315;50.958;13.080;2023-12-20T01:01:35;5.43;;;2.13;;
20314;SDS011;10315;50.958;13.080;2023-12-20T01:11:37;3.20;;;2.53;;
20314;SDS011;10315;50.958;13.080;2023-12-20T01:21:39;2.43;;;1.67;;
20314;SDS011;10315;50.958;13.080;2023-12-20T01:31:42;3.47;;;2.37;;
20314;SDS011;10315;50.958;13.080;2023-12-20T01:41:44;2.97;;;1.60;;
20314;SDS011;10315;50.958;13.080;2023-12-20T01:51:48;1.77;;;1.43;;
20314;SDS011;10315;50.958;13.080;2023-12-20T02:01:50;1.77;;;1.17;;
20314;SDS011;10315;50.958;13.080;2023-12-20T02:11:54;0.87;;;0.80;;
20314;SDS011;10315;50.958;13.080;2023-12-20T02:22:06;0.80;;;0.80;;
20314;SDS011;10315;50.958;13.080;2023-12-20T02:32:08;1.33;;;1.23;;
20314;SDS011;10315;50.958;13.080;2023-12-20T02:42:11;2.03;;;1.03;;
20314;SDS011;10315;50.958;13.080;2023-12-20T02:52:13;2.10;;;1.23;;
20314;SDS011;10315;50.958;13.080;2023-12-20T03:02:16;2.03;;;1.20;;
20314;SDS011;10315;50.958;13.080;2023-12-20T03:12:17;1.27;;;0.93;;
20314;SDS011;10315;50.958;13.080;2023-12-20T03:22:20;1.23;;;1.13;;
20314;SDS011;10315;50.958;13.080;2023-12-20T03:32:22;1.70;;;1.00;;
20314;SDS011;10315;50.958;13.080;2023-12-20T03:42:25;1.27;;;1.17;;
20314;SDS011;10315;50.958;13.080;2023-12-20T03:52:26;1.00;;;0.90;;
20314;SDS011;10315;50.958;13.080;2023-12-20T04:02:29;5.70;;;1.47;;
20314;SDS011;10315;50.958;13.080;2023-12-20T04:12:31;0.80;;;0.80;;
20314;SDS011;10315;50.958;13.080;2023-12-20T04:22:34;1.60;;;1.00;;
20314;SDS011;10315;50.958;13.080;2023-12-20T04:32:36;3.60;;;1.60;;
20314;SDS011;10315;50.958;13.080;2023-12-20T04:42:39;0.93;;;0.93;;
20314;SDS011;10315;50.958;13.080;2023-12-20T04:52:40;1.10;;;1.10;;
20314;SDS011;10315;50.958;13.080;2023-12-20T05:02:44;1.50;;;1.40;;
20314;SDS011;10315;50.958;13.080;2023-12-20T05:12:45;4.83;;;1.50;;
20314;SDS011;10315;50.958;13.080;2023-12-20T05:22:48;1.60;;;1.50;;
20314;SDS011;10315;50.958;13.080;2023-12-20T05:32:50;1.83;;;1.40;;
20314;SDS011;10315;50.958;13.080;2023-12-20T05:42:53;1.73;;;1.63;;
20314;SDS011;10315;50.958;13.080;2023-12-20T05:52:55;1.50;;;1.20;;
20314;SDS011;10315;50.958;13.080;2023-12-20T06:02:57;2.60;;;2.00;;
20314;SDS011;10315;50.958;13.080;2023-12-20T06:12:59;4.17;;;3.27;;
20314;SDS011;10315;50.958;13.080;2023-12-20T06:23:02;5.40;;;3.27;;
20314;SDS011;10315;50.958;13.080;2023-12-20T06:33:04;6.03;;;3.40;;
20314;SDS011;10315;50.958;13.080;2023-12-20T06:43:08;6.67;;;4.03;;
20314;SDS011;10315;50.958;13.080;2023-12-20T06:53:09;4.17;;;2.80;;
20314;SDS011;10315;50.958;13.080;2023-12-20T07:03:12;3.83;;;2.70;;
20314;SDS011;10315;50.958;13.080;2023-12-20T07:13:14;6.80;;;4.30;;
20314;SDS011;10315;50.958;13.080;2023-12-20T07:23:16;5.13;;;3.27;;
20314;SDS011;10315;50.958;13.080;2023-12-20T07:33:19;5.70;;;2.93;;
20314;SDS011;10315;50.958;13.080;2023-12-20T07:43:23;4.37;;;2.73;;
20314;SDS011;10315;50.958;13.080;2023-12-20T07:53:24;3.93;;;2.63;;
20314;SDS011;10315;50.958;13.080;2023-12-20T08:03:27;4.47;;;2.10;;
20314;SDS011;10315;50.958;13.080;2023-12-20T08:13:29;3.60;;;1.93;;
20314;SDS011;10315;50.958;13.080;2023-12-20T08:23:32;2.57;;;1.90;;
20314;SDS011;10315;50.958;13.080;2023-12-20T08:33:34;3.83;;;2.07;;
20314;SDS011;10315;50.958;13.080;2023-12-20T08:43:37;6.07;;;2.23;;
20314;SDS011;10315;50.958;13.080;2023-12-20T08:53:40;4.37;;;2.50;;
20314;SDS011;10315;50.958;13.080;2023-12-20T09:03:43;2.87;;;2.20;;
20314;SDS011;10315;50.958;13.080;2023-12-20T09:13:44;3.83;;;2.40;;
20314;SDS011;10315;50.958;13.080;2023-12-20T09:23:47;5.63;;;1.93;;
20314;SDS011;10315;50.958;13.080;2023-12-20T09:33:49;1.73;;;1.07;;
20314;SDS011;10315;50.958;13.080;2023-12-20T09:43:51;3.00;;;1.73;;
20314;SDS011;10315;50.958;13.080;2023-12-20T09:53:55;2.00;;;1.70;;
20314;SDS011;10315;50.958;13.080;2023-12-20T10:03:59;3.10;;;1.50;;
20314;SDS011;10315;50.958;13.080;2023-12-20T10:14:02;2.23;;;1.77;;
20314;SDS011;10315;50.958;13.080;2023-12-20T10:24:06;6.27;;;1.87;;
20314;SDS011;10315;50.958;13.080;2023-12-20T10:34:08;4.50;;;1.30;;
20314;SDS011;10315;50.958;13.080;2023-12-20T10:44:10;2.93;;;1.80;;
20314;SDS011;10315;50.958;13.080;2023-12-20T10:54:13;5.60;;;1.83;;
20314;SDS011;10315;50.958;13.080;2023-12-20T11:04:18;4.47;;;1.90;;
20314;SDS011;10315;50.958;13.080;2023-12-20T11:14:22;6.87;;;1.37;;
20314;SDS011;10315;50.958;13.080;2023-12-20T11:24:32;2.77;;;1.67;;
20314;SDS011;10315;50.958;13.080;2023-12-20T11:34:34;3.40;;;1.60;;
20314;SDS011;10315;50.958;13.080;2023-12-20T11:44:38;3.23;;;1.57;;
20314;SDS011;10315;50.958;13.080;2023-12-20T11:54:40;6.87;;;1.77;;
20314;SDS011;10315;50.958;13.080;2023-12-20T12:04:43;3.00;;;1.67;;
20314;SDS011;10315;50.958;13.080;2023-12-20T12:14:45;2.30;;;1.50;;
20314;SDS011;10315;50.958;13.080;2023-12-20T12:24:48;4.43;;;1.57;;
20314;SDS011;10315;50.958;13.080;2023-12-20T12:34:50;3.50;;;1.40;;
20314;SDS011;10315;50.958;13.080;2023-12-20T12:44:53;4.17;;;1.20;;
20314;SDS011;10315;50.958;13.080;2023-12-20T12:54:55;2.60;;;1.10;;
20314;SDS011;10315;50.958;13.080;2023-12-20T13:04:57;2.67;;;1.47;;
20314;SDS011;10315;50.958;13.080;2023-12-20T13:15:00;3.30;;;1.50;;
20314;SDS011;10315;50.958;13.080;2023-12-20T13:25:05;2.33;;;1.20;;
20314;SDS011;10315;50.958;13.080;2023-12-20T13:35:07;5.17;;;1.00;;
20314;SDS011;10315;50.958;13.080;2023-12-20T13:45:11;5.53;;;1.23;;
20314;SDS011;10315;50.958;13.080;2023-12-20T13:55:12;1.57;;;1.40;;
20314;SDS011;10315;50.958;13.080;2023-12-20T14:05:15;5.70;;;1.47;;
20314;SDS011;10315;50.958;13.080;2023-12-20T14:15:17;1.57;;;1.20;;
20314;SDS011;10315;50.958;13.080;2023-12-20T14:25:20;6.17;;;1.60;;
20314;SDS011;10315;50.958;13.080;2023-12-20T14:35:23;12.63;;;4.20;;
20314;SDS011;10315;50.958;13.080;2023-12-20T14:45:26;4.90;;;1.87;;
20314;SDS011;10315;50.958;13.080;2023-12-20T14:55:27;1.83;;;1.30;;
20314;SDS011;10315;50.958;13.080;2023-12-20T15:05:31;1.73;;;1.47;;
20314;SDS011;10315;50.958;13.080;2023-12-20T15:15:32;5.73;;;3.30;;
20314;SDS011;10315;50.958;13.080;2023-12-20T15:25:36;4.07;;;3.10;;
20314;SDS011;10315;50.958;13.080;2023-12-20T15:35:37;2.63;;;1.40;;
20314;SDS011;10315;50.958;13.080;2023-12-20T15:45:40;3.13;;;2.07;;
20314;SDS011;10315;50.958;13.080;2023-12-20T15:55:42;2.67;;;1.43;;
20314;SDS011;10315;50.958;13.080;2023-12-20T16:05:45;3.83;;;1.40;;
20314;SDS011;10315;50.958;13.080;2023-12-20T16:15:46;5.63;;;2.10;;
20314;SDS011;10315;50.958;13.080;2023-12-20T16:25:49;3.50;;;1.27;;
20314;SDS011;10315;50.958;13.080;2023-12-20T16:35:51;4.07;;;1.83;;
20314;SDS011;10315;50.958;13.080;2023-12-20T16:45:54;2.10;;;1.40;;
20314;SDS011;10315;50.958;13.080;2023-12-20T16:55:55;3.00;;;2.33;;
20314;SDS011;10315;50.958;13.080;2023-12-20T17:05:58;1.87;;;1.63;;
20314;SDS011;10315;50.958;13.080;2023-12-20T17:16:00;3.60;;;1.87;;
20314;SDS011;10315;50.958;13.080;2023-12-20T17:26:03;3.17;;;1.53;;
20314;SDS011;10315;50.958;13.080;2023-12-20T17:36:05;3.40;;;1.23;;
20314;SDS011;10315;50.958;13.080;2023-12-20T17:46:08;2.50;;;1.57;;
20314;SDS011;10315;50.958;13.080;2023-12-20T17:56:10;2.80;;;1.30;;
20314;SDS011;10315;50.958;13.080;2023-12-20T18:06:13;3.13;;;2.23;;
20314;SDS011;10315;50.958;13.080;2023-12-20T18:16:14;4.60;;;1.60;;
20314;SDS011;10315;50.958;13.080;2023-12-20T18:26:18;6.20;;;2.33;;
20314;SDS011;10315;50.958;13.080;2023-12-20T18:36:20;2.50;;;1.50;;
20314;SDS011;10315;50.958;13.080;2023-12-20T18:46:22;2.93;;;1.50;;
20314;SDS011;10315;50.958;13.080;2023-12-20T18:56:24;1.23;;;1.13;;
20314;SDS011;10315;50.958;13.080;2023-12-20T19:06:27;2.87;;;1.60;;
20314;SDS011;10315;50.958;13.080;2023-12-20T19:16:29;1.70;;;1.57;;
20314;SDS011;10315;50.958;13.080;2023-12-20T19:26:32;1.80;;;1.70;;
20314;SDS011;10315;50.958;13.080;2023-12-20T19:36:33;1.60;;;1.37;;
20314;SDS011;10315;50.958;13.080;2023-12-20T19:46:36;2.73;;;1.20;;
20314;SDS011;10315;50.958;13.080;2023-12-20T19:56:39;0.80;;;0.80;;
20314;SDS011;10315;50.958;13.080;2023-12-20T20:06:42;1.90;;;0.80;;
20314;SDS011;10315;50.958;13.080;2023-12-20T20:16:43;2.57;;;1.30;;
20314;SDS011;10315;50.958;13.080;2023-12-20T20:26:46;1.73;;;0.80;;
20314;SDS011;10315;50.958;13.080;2023-12-20T20:36:48;1.10;;;0.97;;
20314;SDS011;10315;50.958;13.080;2023-12-20T20:46:51;2.83;;;0.90;;
20314;SDS011;10315;50.958;13.080;2023-12-20T20:56:53;0.67;;;0.67;;
20314;SDS011;10315;50.958;13.080;2023-12-20T21:06:55;1.80;;;0.70;;
20314;SDS011;10315;50.958;13.080;2023-12-20T21:16:57;4.63;;;0.80;;
20314;SDS011;10315;50.958;13.080;2023-12-20T21:27:01;2.40;;;0.90;;
20314;SDS011;10315;50.958;13.080;2023-12-20T21:37:03;1.20;;;0.73;;
20314;SDS011;10315;50.958;13.080;2023-12-20T21:47:07;1.90;;;0.63;;
20314;SDS011;10315;50.958;13.080;2023-12-20T21:57:08;1.33;;;0.50;;
20314;SDS011;10315;50.958;13.080;2023-12-20T22:07:12;1.10;;;1.03;;
20314;SDS011;10315;50.958;13.080;2023-12-20T22:17:15;1.00;;;0.73;;
20314;SDS011;10315;50.958;13.080;2023-12-20T22:27:19;0.60;;;0.60;;
20314;SDS011;10315;50.958;13.080;2023-12-20T22:37:20;1.27;;;1.00;;
20314;SDS011;10315;50.958;13.080;2023-12-20T22:47:23;2.77;;;1.00;;
20314;SDS011;10315;50.958;13.080;2023-12-20T22:57:25;0.80;;;0.73;;
20314;SDS011;10315;50.958;13.080;2023-12-20T23:07:27;2.63;;;1.40;;
20314;SDS011;10315;50.958;13.080;2023-12-20T23:17:29;5.83;;;1.40;;
20314;SDS011;10315;50.958;13.080;2023-12-20T23:27:32;2.97;;;1.50;;
20314;SDS011;10315;50.958;13.080;2023-12-20T23:37:34;1.23;;;1.13;;
20314;SDS011;10315;50.958;13.080;2023-12-20T23:47:37;1.23;;;1.10;;
20314;SDS011;10315;50.958;13.080;2023-12-20T23:57:38;2.57;;;1.33;;
